createdAt,value
2022-10-03T00:01:22.121Z,99326.91
2022-10-03T00:03:37.102Z,99314.72
2022-10-03T00:05:57.472Z,99319.94
2022-10-03T00:08:28.987Z,99320.66
2022-10-03T00:10:38.910Z,99315.44
2022-10-03T00:12:47.475Z,99311.75
2022-10-03T00:15:09.884Z,99311.75
2022-10-03T00:17:28.274Z,99301.56
2022-10-03T00:19:59.629Z,99308.25
2022-10-03T00:22:21.506Z,99310.66
2022-10-03T00:24:47.573Z,99310.09
2022-10-03T00:26:56.505Z,99313.78
2022-10-03T00:29:20.651Z,99314.75
2022-10-03T00:31:43.086Z,99316.91
2022-10-03T00:34:09.768Z,99307.38
2022-10-03T00:36:42.863Z,99313.88
2022-10-03T00:39:21.104Z,99298.03
2022-10-03T00:41:55.697Z,99299.25
2022-10-03T00:44:16.784Z,99298.75
2022-10-03T00:46:37.479Z,99292.81
2022-10-03T00:49:06.821Z,99300.94
2022-10-03T00:51:27.117Z,99295.72
2022-10-03T00:53:47.129Z,99294.66
2022-10-03T00:56:03.648Z,99293.88
2022-10-03T00:58:32.019Z,99291.38
2022-10-03T01:00:35.559Z,99296.59
2022-10-03T01:03:09.593Z,99297.22
2022-10-03T01:05:48.401Z,99288.59
2022-10-03T01:07:58.211Z,99290.09
2022-10-03T01:10:37.063Z,99281.09
2022-10-03T01:13:22.188Z,99283.25
2022-10-03T01:15:43.578Z,99288.38
2022-10-03T01:17:54.056Z,99282.06
2022-10-03T01:20:18.416Z,99279.94
2022-10-03T01:22:48.915Z,99279.25
2022-10-03T01:24:53.779Z,99279.59
2022-10-03T01:27:00.896Z,99278.28
2022-10-03T01:29:29.294Z,99271.66
2022-10-03T01:31:39.118Z,99268.09
2022-10-03T01:33:49.146Z,99268.53
2022-10-03T01:36:03.292Z,99262.03
2022-10-03T01:38:28.164Z,99277.59
2022-10-03T01:41:15.185Z,99275.66
2022-10-03T01:43:33.040Z,99277.94
2022-10-03T01:45:49.759Z,99273.41
2022-10-03T01:48:01.311Z,99273.59
2022-10-03T01:50:08.925Z,99286.81
2022-10-03T01:52:37.246Z,99273.50
2022-10-03T01:55:08.300Z,99277.22
2022-10-03T01:57:41.996Z,99273.72
2022-10-03T02:00:02.284Z,99264.72
2022-10-03T02:02:42.761Z,99266.66
2022-10-03T02:04:52.847Z,99265.13
2022-10-03T02:07:03.175Z,99263.19
2022-10-03T02:09:16.880Z,99272.88
2022-10-03T02:11:58.148Z,99268.03
2022-10-03T02:14:18.068Z,99266.88
2022-10-03T02:16:44.975Z,99264.16
2022-10-03T02:18:49.963Z,99271.97
2022-10-03T02:21:03.088Z,99270.75
2022-10-03T02:23:24.051Z,99275.63
2022-10-03T02:25:31.924Z,99274.47
2022-10-03T02:28:15.261Z,99281.59
2022-10-03T02:30:20.081Z,99278.69
2022-10-03T02:32:52.154Z,99285.19
2022-10-03T02:35:08.040Z,99282.47
2022-10-03T02:37:47.271Z,99279.09
2022-10-03T02:40:08.715Z,99284.75
2022-10-03T02:42:55.300Z,99280.84
2022-10-03T02:45:21.335Z,99285.19
2022-10-03T02:47:51.262Z,99280.28
2022-10-03T02:50:13.795Z,99286.47
2022-10-03T02:52:45.871Z,99286.13
2022-10-03T02:55:06.112Z,99283.28
2022-10-03T02:57:39.742Z,99286.22
2022-10-03T03:00:05.945Z,99293.00
2022-10-03T03:02:48.120Z,99297.91
2022-10-03T03:05:18.661Z,99297.53
2022-10-03T03:07:39.354Z,99302.94
2022-10-03T03:10:05.323Z,99304.31
2022-10-03T03:12:25.419Z,99305.88
2022-10-03T03:14:40.102Z,99301.97
2022-10-03T03:16:57.949Z,99307.38
2022-10-03T03:19:11.268Z,99301.56
2022-10-03T03:22:01.862Z,99309.16
2022-10-03T03:24:14.446Z,99303.53
2022-10-03T03:26:16.481Z,99304.28
2022-10-03T03:28:24.640Z,99295.47
2022-10-03T03:30:39.103Z,99304.69
2022-10-03T03:33:12.887Z,99309.97
2022-10-03T03:35:27.179Z,99302.19
2022-10-03T03:37:44.151Z,99292.72
2022-10-03T03:39:57.335Z,99299.00
2022-10-03T03:42:41.062Z,99308.97
2022-10-03T03:44:58.615Z,99313.44
2022-10-03T03:47:16.749Z,99317.59
2022-10-03T03:49:49.731Z,99308.97
2022-10-03T03:52:02.293Z,99309.31
2022-10-03T03:54:26.437Z,99315.38
2022-10-03T03:56:49.401Z,99319.66
2022-10-03T03:59:19.266Z,99317.09
2022-10-03T04:01:52.266Z,99311.13
2022-10-03T04:04:23.394Z,99320.22
2022-10-03T04:06:40.567Z,99322.06
2022-10-03T04:09:01.055Z,99322.81
2022-10-03T04:11:18.581Z,99319.94
2022-10-03T04:13:48.364Z,99329.31
2022-10-03T04:15:56.569Z,99326.25
2022-10-03T04:18:20.178Z,99334.09
2022-10-03T04:20:26.855Z,99334.28
2022-10-03T04:23:01.726Z,99333.31
2022-10-03T04:25:41.275Z,99332.53
2022-10-03T04:28:14.399Z,99339.59
2022-10-03T04:30:20.930Z,99336.69
2022-10-03T04:32:49.152Z,99340.78
2022-10-03T04:34:51.221Z,99344.94
2022-10-03T04:37:24.518Z,99342.41
2022-10-03T04:40:13.695Z,99344.28
2022-10-03T04:42:39.833Z,99348.91
2022-10-03T04:45:00.788Z,99356.56
2022-10-03T04:47:15.671Z,99351.72
2022-10-03T04:49:37.511Z,99360.31
2022-10-03T04:52:26.241Z,99369.25
2022-10-03T04:54:53.281Z,99368.19
2022-10-03T04:57:32.992Z,99374.56
2022-10-03T04:59:38.142Z,99368.09
2022-10-03T05:01:47.810Z,99372.31
2022-10-03T05:04:10.838Z,99366.25
2022-10-03T05:06:19.544Z,99365.88
2022-10-03T05:08:30.471Z,99371.09
2022-10-03T05:10:53.251Z,99358.00
2022-10-03T05:13:27.428Z,99361.69
2022-10-03T05:16:06.773Z,99366.53
2022-10-03T05:18:11.608Z,99371.38
2022-10-03T05:20:45.041Z,99374.38
2022-10-03T05:23:17.675Z,99375.16
2022-10-03T05:25:43.682Z,99379.50
2022-10-03T05:27:52.240Z,99379.97
2022-10-03T05:30:09.837Z,99382.00
2022-10-03T05:32:21.006Z,99389.94
2022-10-03T05:34:33.490Z,99381.41
2022-10-03T05:36:53.107Z,99379.97
2022-10-03T05:39:16.844Z,99390.34
2022-10-03T05:41:35.848Z,99391.78
2022-10-03T05:44:01.872Z,99399.72
2022-10-03T05:46:21.633Z,99408.84
2022-10-03T05:48:39.055Z,99405.81
2022-10-03T05:51:14.987Z,99397.00
2022-10-03T05:53:17.066Z,99403.56
2022-10-03T05:55:48.229Z,99408.50
2022-10-03T05:57:59.419Z,99407.34
2022-10-03T06:00:01.380Z,99410.56
2022-10-03T06:02:38.318Z,99406.28
2022-10-03T06:05:17.038Z,99416.28
2022-10-03T06:08:00.273Z,99415.88
2022-10-03T06:10:08.323Z,99419.56
2022-10-03T06:12:33.457Z,99424.13
2022-10-03T06:15:10.795Z,99426.75
2022-10-03T06:17:33.932Z,99428.75
2022-10-03T06:19:44.816Z,99433.31
2022-10-03T06:22:05.020Z,99431.97
2022-10-03T06:24:35.043Z,99438.75
2022-10-03T06:26:40.184Z,99436.59
2022-10-03T06:29:19.681Z,99438.63
2022-10-03T06:31:44.277Z,99432.81
2022-10-03T06:34:01.588Z,99445.81
2022-10-03T06:36:26.491Z,99447.03
2022-10-03T06:38:40.686Z,99447.03
2022-10-03T06:40:53.532Z,99446.84
2022-10-03T06:42:58.494Z,99453.41
2022-10-03T06:45:38.085Z,99453.41
2022-10-03T06:47:52.758Z,99459.81
2022-10-03T06:50:36.192Z,99458.97
2022-10-03T06:53:02.533Z,99465.00
2022-10-03T06:55:35.692Z,99461.19
2022-10-03T06:57:51.520Z,99457.41
2022-10-03T07:00:10.494Z,99463.81
2022-10-03T07:02:39.163Z,99456.44
2022-10-03T07:08:35.952Z,99468.84
2022-10-03T07:10:48.349Z,99464.84
2022-10-03T07:12:59.307Z,99467.66
2022-10-03T07:16:02.094Z,99475.22
2022-10-03T07:18:27.534Z,99476.41
2022-10-03T07:21:06.742Z,99479.88
2022-10-03T07:23:43.241Z,99481.34
2022-10-03T07:26:12.921Z,99481.34
2022-10-03T07:28:39.247Z,99475.00
2022-10-03T07:31:03.246Z,99479.50
2022-10-03T07:33:42.056Z,99482.22
2022-10-03T07:36:30.613Z,99479.19
2022-10-03T07:39:07.325Z,99486.44
2022-10-03T07:41:43.732Z,99486.34
2022-10-03T07:44:04.260Z,99480.50
2022-10-03T07:46:28.905Z,99474.59
2022-10-03T07:48:50.176Z,99471.00
2022-10-03T07:51:13.882Z,99473.72
2022-10-03T07:53:18.733Z,99473.13
2022-10-03T07:55:39.427Z,99466.78
2022-10-03T07:58:09.486Z,99468.34
2022-10-03T08:00:17.990Z,99468.03
2022-10-03T08:02:41.926Z,99470.34
2022-10-03T08:05:16.074Z,99474.59
2022-10-03T08:07:36.547Z,99470.38
2022-10-03T08:10:02.516Z,99460.06
2022-10-03T08:12:16.820Z,99454.03
2022-10-03T08:14:37.754Z,99460.00
2022-10-03T08:16:58.752Z,99463.34
2022-10-03T08:19:23.238Z,99463.22
2022-10-03T08:21:39.067Z,99466.84
2022-10-03T08:24:04.769Z,99470.09
2022-10-03T08:26:23.383Z,99467.47
2022-10-03T08:29:09.004Z,99478.59
2022-10-03T08:31:35.332Z,99469.34
2022-10-03T08:34:10.922Z,99476.19
2022-10-03T08:36:45.780Z,99471.75
2022-10-03T08:38:59.856Z,99471.06
2022-10-03T08:41:36.899Z,99468.81
2022-10-03T08:44:07.354Z,99471.81
2022-10-03T08:46:11.945Z,99473.78
2022-10-03T08:48:34.771Z,99469.28
2022-10-03T08:50:46.604Z,99467.09
2022-10-03T08:53:20.676Z,99457.59
2022-10-03T08:55:45.851Z,99458.38
2022-10-03T08:57:59.044Z,99460.19
2022-10-03T09:00:19.032Z,99454.16
2022-10-03T09:02:33.179Z,99453.00
2022-10-03T09:05:03.407Z,99450.72
2022-10-03T09:07:19.741Z,99455.06
2022-10-03T09:09:43.454Z,99459.31
2022-10-03T09:12:25.400Z,99455.84
2022-10-03T09:14:50.697Z,99452.19
2022-10-03T09:16:55.322Z,99452.66
2022-10-03T09:19:14.816Z,99454.44
2022-10-03T09:21:38.287Z,99457.53
2022-10-03T09:23:58.079Z,99450.72
2022-10-03T09:26:26.319Z,99453.69
2022-10-03T09:29:13.123Z,99454.88
2022-10-03T09:31:31.206Z,99446.63
2022-10-03T09:34:04.019Z,99442.38
2022-10-03T09:36:43.300Z,99441.41
2022-10-03T09:39:16.604Z,99442.44
2022-10-03T09:41:42.178Z,99436.38
2022-10-03T09:44:03.203Z,99444.56
2022-10-03T09:46:46.689Z,99440.63
2022-10-03T09:49:26.504Z,99444.44
2022-10-03T09:51:40.212Z,99447.78
2022-10-03T09:54:24.136Z,99441.22
2022-10-03T09:56:26.312Z,99443.84
2022-10-03T09:58:42.049Z,99436.78
2022-10-03T10:01:15.845Z,99435.25
2022-10-03T10:03:42.387Z,99442.34
2022-10-03T10:06:00.521Z,99437.00
2022-10-03T10:08:33.442Z,99446.19
2022-10-03T10:11:03.454Z,99442.44
2022-10-03T10:14:05.812Z,99445.66
2022-10-03T10:16:49.663Z,99427.81
2022-10-03T10:19:03.593Z,99435.63
2022-10-03T10:21:23.877Z,99435.00
2022-10-03T10:23:47.772Z,99425.97
2022-10-03T10:26:30.012Z,99432.69
2022-10-03T10:28:59.816Z,99425.25
2022-10-03T10:31:07.655Z,99422.00
2022-10-03T10:33:45.720Z,99421.75
2022-10-03T10:36:19.457Z,99420.16
2022-10-03T10:38:39.853Z,99424.53
2022-10-03T10:40:47.678Z,99422.81
2022-10-03T10:43:23.774Z,99410.25
2022-10-03T10:45:54.310Z,99412.50
2022-10-03T10:48:46.851Z,99409.75
2022-10-03T10:51:06.619Z,99409.25
2022-10-03T10:53:42.696Z,99399.22
2022-10-03T10:56:23.036Z,99399.31
2022-10-03T10:58:43.065Z,99396.56
2022-10-03T11:00:50.720Z,99394.91
2022-10-03T11:03:15.678Z,99390.59
2022-10-03T11:05:36.501Z,99397.06
2022-10-03T11:08:19.374Z,99395.38
2022-10-03T11:10:33.182Z,99397.50
2022-10-03T11:12:41.199Z,99391.88
2022-10-03T11:15:11.145Z,99396.31
2022-10-03T11:17:48.133Z,99387.94
2022-10-03T11:20:11.792Z,99386.91
2022-10-03T11:22:32.363Z,99392.97
2022-10-03T11:24:59.587Z,99388.25
2022-10-03T11:27:43.446Z,99390.88
2022-10-03T11:30:23.302Z,99389.63
2022-10-03T11:33:13.411Z,99397.94
2022-10-03T11:35:45.350Z,99387.25
2022-10-03T11:37:58.724Z,99382.53
2022-10-03T11:40:22.069Z,99384.94
2022-10-03T11:42:33.556Z,99380.34
2022-10-03T11:44:45.265Z,99390.63
2022-10-03T11:47:13.978Z,99390.28
2022-10-03T11:49:36.205Z,99391.03
2022-10-03T11:51:52.842Z,99378.25
2022-10-03T11:54:30.955Z,99385.41
2022-10-03T11:56:47.477Z,99388.28
2022-10-03T11:58:55.382Z,99385.56
2022-10-03T12:01:04.645Z,99381.22
2022-10-03T12:03:16.177Z,99380.34
2022-10-03T12:06:19.490Z,99377.38
2022-10-03T12:08:53.574Z,99377.34
2022-10-03T12:11:18.649Z,99375.63
2022-10-03T12:13:35.066Z,99370.56
2022-10-03T12:15:48.324Z,99375.88
2022-10-03T12:18:07.081Z,99363.09
2022-10-03T12:20:33.558Z,99366.19
2022-10-03T12:22:54.186Z,99363.31
2022-10-03T12:25:23.454Z,99355.38
2022-10-03T12:27:47.637Z,99358.50
2022-10-03T12:29:58.994Z,99356.63
2022-10-03T12:32:20.102Z,99355.41
2022-10-03T12:34:43.235Z,99354.06
2022-10-03T12:37:03.901Z,99352.06
2022-10-03T12:39:25.882Z,99357.28
2022-10-03T12:41:56.702Z,99377.75
2022-10-03T12:44:36.543Z,99390.16
2022-10-03T12:46:48.196Z,99375.38
2022-10-03T12:49:20.572Z,99361.25
2022-10-03T12:51:44.989Z,99359.13
2022-10-03T12:53:52.618Z,99364.84
2022-10-03T12:56:11.916Z,99358.72
2022-10-03T12:58:35.066Z,99362.47
2022-10-03T13:00:49.659Z,99363.94
2022-10-03T13:03:15.336Z,99356.41
2022-10-03T13:05:37.806Z,99360.59
2022-10-03T13:07:53.026Z,99365.19
2022-10-03T13:10:17.077Z,99355.28
2022-10-03T13:12:28.453Z,99358.88
2022-10-03T13:14:41.615Z,99359.63
2022-10-03T13:17:09.381Z,99363.22
2022-10-03T13:19:30.125Z,99359.13
2022-10-03T13:21:48.369Z,99352.56
2022-10-03T13:23:58.775Z,99353.78
2022-10-03T13:26:20.056Z,99356.88
2022-10-03T13:28:28.157Z,99352.16
2022-10-03T13:30:34.725Z,99349.84
2022-10-03T13:32:43.310Z,99353.16
2022-10-03T13:35:42.024Z,99346.47
2022-10-03T13:37:59.919Z,99349.94
2022-10-03T13:40:12.617Z,99336.22
2022-10-03T13:42:14.472Z,99333.97
2022-10-03T13:44:33.718Z,99335.22
2022-10-03T13:46:57.294Z,99332.88
2022-10-03T13:49:11.045Z,99328.28
2022-10-03T13:51:37.197Z,99332.38
2022-10-03T13:53:45.765Z,99325.56
2022-10-03T13:56:01.749Z,99327.03
2022-10-03T13:58:41.718Z,99329.13
2022-10-03T14:00:52.647Z,99323.31
2022-10-03T14:03:27.173Z,99328.88
2022-10-03T14:05:32.035Z,99333.22
2022-10-03T14:07:42.495Z,99330.50
2022-10-03T14:10:30.123Z,99335.19
2022-10-03T14:12:55.738Z,99336.31
2022-10-03T14:15:17.149Z,99335.84
2022-10-03T14:17:57.108Z,99339.44
2022-10-03T14:20:07.775Z,99337.06
2022-10-03T14:22:27.936Z,99335.19
2022-10-03T14:24:38.579Z,99341.56
2022-10-03T14:27:18.064Z,99327.41
2022-10-03T14:29:41.521Z,99334.22
2022-10-03T14:31:46.173Z,99334.59
2022-10-03T14:33:48.429Z,99344.75
2022-10-03T14:36:16.888Z,99337.31
2022-10-03T14:39:02.316Z,99335.81
2022-10-03T14:41:11.366Z,99348.34
2022-10-03T14:43:42.774Z,99347.94
2022-10-03T14:45:52.794Z,99348.53
2022-10-03T14:48:01.306Z,99346.78
2022-10-03T14:50:05.665Z,99344.19
2022-10-03T14:52:19.003Z,99342.81
2022-10-03T14:54:29.503Z,99342.81
2022-10-03T14:57:00.244Z,99346.25
2022-10-03T14:59:13.696Z,99347.13
2022-10-03T15:01:20.828Z,99346.88
2022-10-03T15:03:30.672Z,99345.25
2022-10-03T15:05:36.094Z,99345.63
2022-10-03T15:07:40.551Z,99342.88
2022-10-03T15:09:50.269Z,99354.03
2022-10-03T15:12:03.227Z,99351.66
2022-10-03T15:14:10.261Z,99357.34
2022-10-03T15:16:20.303Z,99356.38
2022-10-03T15:18:24.869Z,99357.00
2022-10-03T15:20:31.233Z,99360.72
2022-10-03T15:22:49.460Z,99354.00
2022-10-03T15:25:00.768Z,99361.69
2022-10-03T15:27:13.488Z,99353.88
2022-10-03T15:29:18.479Z,99352.91
2022-10-03T15:31:42.184Z,99351.38
2022-10-03T15:33:45.914Z,99358.44
2022-10-03T15:35:55.179Z,99363.16
2022-10-03T15:38:12.029Z,99364.38
2022-10-03T15:40:34.022Z,99360.91
2022-10-03T15:42:49.583Z,99370.19
2022-10-03T15:45:07.452Z,99371.19
2022-10-03T15:47:12.964Z,99368.22
2022-10-03T15:49:21.081Z,99373.91
2022-10-03T15:51:27.732Z,99376.97
2022-10-03T15:53:37.190Z,99378.81
2022-10-03T15:55:48.306Z,99390.69
2022-10-03T15:57:53.973Z,99384.28
2022-10-03T16:00:03.019Z,99395.03
2022-10-03T16:02:21.267Z,99390.06
2022-10-03T16:04:33.946Z,99393.13
2022-10-03T16:06:53.643Z,99395.09
2022-10-03T16:09:33.667Z,99395.94
2022-10-03T16:12:04.152Z,99393.69
2022-10-03T16:14:22.803Z,99410.03
2022-10-03T16:16:42.815Z,99412.56
2022-10-03T16:18:48.487Z,99428.13
2022-10-03T16:20:57.895Z,99443.06
2022-10-03T16:23:10.581Z,99458.19
2022-10-03T16:25:18.416Z,99446.44
2022-10-03T16:27:30.001Z,99447.22
2022-10-03T16:29:37.524Z,99457.47
2022-10-03T16:31:48.846Z,99469.97
2022-10-03T16:34:12.447Z,99471.84
2022-10-03T16:36:19.620Z,99472.38
2022-10-03T16:38:44.183Z,99467.94
2022-10-03T16:41:02.021Z,99471.41
2022-10-03T16:43:12.603Z,99458.47
2022-10-03T16:45:35.605Z,99458.88
2022-10-03T16:47:38.707Z,99454.53
2022-10-03T16:50:06.262Z,99457.78
2022-10-03T16:52:34.790Z,99456.94
2022-10-03T16:54:37.638Z,99460.09
2022-10-03T16:56:44.772Z,99462.91
2022-10-03T16:58:53.070Z,99457.94
2022-10-03T17:01:26.003Z,99469.22
2022-10-03T17:03:32.344Z,99465.41
2022-10-03T17:05:46.215Z,99471.06
2022-10-03T17:08:06.675Z,99469.34
2022-10-03T17:10:31.959Z,99471.50
2022-10-03T17:12:46.204Z,99476.81
2022-10-03T17:14:49.141Z,99477.59
2022-10-03T17:16:56.560Z,99484.31
2022-10-03T17:19:14.646Z,99481.63
2022-10-03T17:21:33.180Z,99490.84
2022-10-03T17:23:56.486Z,99498.13
2022-10-03T17:26:06.095Z,99492.38
2022-10-03T17:28:15.351Z,99501.28
2022-10-03T17:30:43.278Z,99504.91
2022-10-03T17:32:53.438Z,99501.97
2022-10-03T17:35:00.947Z,99507.41
2022-10-03T17:37:12.355Z,99514.13
2022-10-03T17:39:52.465Z,99504.91
2022-10-03T17:42:03.670Z,99504.34
2022-10-03T17:44:28.776Z,99515.31
2022-10-03T17:47:04.697Z,99510.41
2022-10-03T17:49:24.153Z,99515.06
2022-10-03T17:51:36.914Z,99520.41
2022-10-03T17:53:44.088Z,99521.81
2022-10-03T17:55:57.310Z,99523.13
2022-10-03T17:58:05.291Z,99518.66
2022-10-03T18:00:18.317Z,99513.97
2022-10-03T18:02:31.296Z,99514.28
2022-10-03T18:04:40.140Z,99524.38
2022-10-03T18:06:57.435Z,99528.91
2022-10-03T18:09:07.475Z,99525.16
2022-10-03T18:11:23.204Z,99518.19
2022-10-03T18:13:35.161Z,99532.94
2022-10-03T18:15:47.159Z,99536.50
2022-10-03T18:17:59.868Z,99534.00
2022-10-03T18:20:22.958Z,99530.44
2022-10-03T18:22:38.528Z,99527.81
2022-10-03T18:24:45.587Z,99537.59
2022-10-03T18:27:32.378Z,99538.31
2022-10-03T18:29:51.457Z,99544.75
2022-10-03T18:31:58.992Z,99545.53
2022-10-03T18:34:20.122Z,99555.69
2022-10-03T18:36:58.986Z,99548.41
2022-10-03T18:39:15.347Z,99554.19
2022-10-03T18:41:19.175Z,99555.50
2022-10-03T18:43:26.251Z,99562.22
2022-10-03T18:45:41.940Z,99559.63
2022-10-03T18:47:51.476Z,99562.41
2022-10-03T18:49:59.328Z,99569.56
2022-10-03T18:52:13.542Z,99564.56
2022-10-03T18:54:27.571Z,99576.03
2022-10-03T18:56:30.697Z,99577.50
2022-10-03T18:58:45.067Z,99580.72
2022-10-03T19:00:52.699Z,99583.06
2022-10-03T19:03:03.935Z,99590.34
2022-10-03T19:05:23.008Z,99586.47
2022-10-03T19:07:28.217Z,99582.69
2022-10-03T19:09:39.345Z,99595.31
2022-10-03T19:12:01.637Z,99601.50
2022-10-03T19:14:26.164Z,99589.78
2022-10-03T19:17:05.842Z,99577.66
2022-10-03T19:19:08.042Z,99581.13
2022-10-03T19:21:21.219Z,99579.25
2022-10-03T19:23:30.123Z,99583.16
2022-10-03T19:25:39.327Z,99588.88
2022-10-03T19:27:52.360Z,99593.31
2022-10-03T19:29:59.427Z,99597.75
2022-10-03T19:32:27.698Z,99599.50
2022-10-03T19:34:35.444Z,99601.34
2022-10-03T19:36:39.893Z,99597.94
2022-10-03T19:38:46.335Z,99604.06
2022-10-03T19:41:14.124Z,99611.50
2022-10-03T19:43:16.406Z,99609.03
2022-10-03T19:45:20.323Z,99611.53
2022-10-03T19:47:34.023Z,99612.25
2022-10-03T19:50:21.226Z,99612.25
2022-10-03T19:52:32.400Z,99614.00
2022-10-03T19:54:45.337Z,99618.56
2022-10-03T19:56:48.017Z,99620.28
2022-10-03T19:59:14.806Z,99629.28
2022-10-03T20:01:17.175Z,99635.28
2022-10-03T20:03:34.189Z,99647.19
2022-10-03T20:05:51.100Z,99653.28
2022-10-03T20:08:15.336Z,99669.78
2022-10-03T20:10:39.707Z,99668.00
2022-10-03T20:12:46.593Z,99674.41
2022-10-03T20:14:56.325Z,99686.31
2022-10-03T20:17:02.588Z,99668.00
2022-10-03T20:19:15.075Z,99630.50
2022-10-03T20:21:27.442Z,99620.22
2022-10-03T20:23:33.075Z,99609.66
2022-10-03T20:25:46.594Z,99615.56
2022-10-03T20:27:57.730Z,99611.72
2022-10-03T20:30:36.078Z,99623.38
2022-10-03T20:32:43.755Z,99631.63
2022-10-03T20:34:54.159Z,99631.31
2022-10-03T20:37:16.998Z,99636.56
2022-10-03T20:39:30.541Z,99631.63
2022-10-03T20:41:42.491Z,99623.22
2022-10-03T20:43:52.638Z,99634.66
2022-10-03T20:46:06.560Z,99631.94
2022-10-03T20:48:18.850Z,99637.66
2022-10-03T20:50:20.998Z,99640.09
2022-10-03T20:52:25.285Z,99642.78
2022-10-03T20:54:35.668Z,99648.31
2022-10-03T20:56:50.535Z,99647.53
2022-10-03T20:58:58.519Z,99651.47
2022-10-03T21:01:23.509Z,99649.75
2022-10-03T21:04:07.340Z,99646.84
2022-10-03T21:06:25.424Z,99655.72
2022-10-03T21:08:38.099Z,99651.78
2022-10-03T21:10:47.726Z,99655.34
2022-10-03T21:13:02.961Z,99649.94
2022-10-03T21:15:14.723Z,99653.50
2022-10-03T21:17:20.365Z,99651.78
2022-10-03T21:19:37.960Z,99654.50
2022-10-03T21:21:47.631Z,99664.56
2022-10-03T21:23:56.117Z,99657.22
2022-10-03T21:26:01.455Z,99655.81
2022-10-03T21:28:05.035Z,99670.31
2022-10-03T21:30:23.355Z,99662.38
2022-10-03T21:32:37.373Z,99661.59
2022-10-03T21:34:58.510Z,99678.50
2022-10-03T21:37:23.477Z,99679.66
2022-10-03T21:39:36.583Z,99670.38
2022-10-03T21:41:56.744Z,99675.00
2022-10-03T21:44:02.514Z,99670.03
2022-10-03T21:46:21.743Z,99677.28
2022-10-03T21:56:27.998Z,99697.56
2022-10-03T21:58:36.350Z,99692.44
2022-10-03T22:01:13.375Z,99689.38
2022-10-03T22:03:26.189Z,99691.47
2022-10-03T22:05:50.628Z,99698.75
2022-10-03T22:07:53.003Z,99693.03
2022-10-03T22:09:59.434Z,99707.28
2022-10-03T22:12:07.321Z,99711.13
2022-10-03T22:14:41.627Z,99709.72
2022-10-03T22:16:49.503Z,99717.72
2022-10-03T22:19:07.101Z,99719.50
2022-10-03T22:21:23.362Z,99725.91
2022-10-03T22:23:50.733Z,99715.69
2022-10-03T22:26:01.536Z,99710.81
2022-10-03T22:28:48.712Z,99692.91
2022-10-03T22:31:09.359Z,99693.97
2022-10-03T22:33:34.454Z,99687.53
2022-10-03T22:35:55.862Z,99699.41
2022-10-03T22:37:58.128Z,99700.91
2022-10-03T22:40:01.721Z,99704.31
2022-10-03T22:42:06.890Z,99702.50
2022-10-03T22:44:12.895Z,99704.91
2022-10-03T22:46:26.265Z,99704.91
2022-10-03T22:48:44.660Z,99711.69
2022-10-03T22:50:47.642Z,99709.56
2022-10-03T22:52:55.262Z,99714.09
2022-10-03T22:54:58.312Z,99714.09
2022-10-03T22:57:05.386Z,99721.28
2022-10-03T22:59:33.853Z,99720.31
2022-10-03T23:01:40.259Z,99718.47
2022-10-03T23:03:43.101Z,99725.72
2022-10-03T23:05:54.300Z,99722.16
2022-10-03T23:08:10.552Z,99727.81
2022-10-03T23:10:34.519Z,99727.94
2022-10-03T23:12:48.161Z,99736.91
2022-10-03T23:14:55.360Z,99731.50
2022-10-03T23:17:34.080Z,99734.59
2022-10-03T23:19:57.158Z,99737.13
2022-10-03T23:22:03.401Z,99734.38
2022-10-03T23:24:15.020Z,99738.97
2022-10-03T23:26:56.607Z,99736.53
2022-10-03T23:29:03.332Z,99737.25
2022-10-03T23:31:05.808Z,99733.56
2022-10-03T23:33:19.327Z,99741.94
2022-10-03T23:35:41.817Z,99741.44
2022-10-03T23:37:47.413Z,99737.31
2022-10-03T23:39:58.428Z,99743.84
2022-10-03T23:42:21.864Z,99742.81
2022-10-03T23:45:10.632Z,99745.00
2022-10-03T23:47:16.655Z,99737.56
2022-10-03T23:49:20.820Z,99736.63
2022-10-03T23:51:30.394Z,99743.41
2022-10-03T23:53:47.159Z,99744.91
2022-10-03T23:55:50.218Z,99739.47
2022-10-03T23:57:52.434Z,99743.16
2022-10-03T23:59:54.913Z,99741.56
